• Join FlightAware (Why Join?)
  • Login
  • US Flag 
10:09AM EST


 

Airport Tracker/Info


-or-


 

Live Flight TrackerFlight Track Log ✈ SLI2164 ✈ 12-May-2013 ✈ MMLT / LTO - KLAX

Flight Track Log - Related Links

Times and Time Zones

All times are in EDT time to prevent confusion due to time zone crossing. See the SLI2164 flight status page for this flight to view local times or setup timezone preferences in your user account.

Time Position Orientation Groundspeed Altitude Reporting Facility
EDT Latitude Longitude Course Direction KTS MPH feet Rate Location/Type
02:58PM 32.0236 -114.8786 333° Northwest 384 442 36,000  Level Los Angeles Center
02:59PM 32.1361 -114.9458 333° Northwest 378 435 36,000  Level Los Angeles Center
03:00PM 32.2286 -115.0008 333° Northwest 374 430 36,000  Level Los Angeles Center
03:01PM 32.3219 -115.0550 334° Northwest 373 429 36,000  Level Los Angeles Center
03:02PM 32.3869 -115.1553 308° West 392 451 36,000  Level Los Angeles Center
03:03PM 32.4544 -115.2831 302° West 405 466 36,000  Level Los Angeles Center
03:04PM 32.5167 -115.4008 302° West 421 484 36,000  Level Los Angeles Center
03:05PM 32.5811 -115.5214 302° West 431 496 36,000  Level Los Angeles Center
03:06PM 32.6467 -115.6417 303° West 434 499 36,000  Level Los Angeles Center
03:07PM 32.7100 -115.7633 302° West 434 499 36,000  Level Los Angeles Center
03:08PM 32.7867 -115.9081 302° West 433 498 36,000 -780 Level Los Angeles Center
03:09PM 32.8489 -116.0256 302° West 423 487 34,400 -2,040 Descending Los Angeles Center
03:10PM 32.9125 -116.1461 302° West 432 497 31,900 -2,340 Descending Los Angeles Center
03:11PM 32.9736 -116.2639 302° West 438 504 29,600 -2,580 Descending Los Angeles Center
03:12PM 33.0497 -116.4114 302° West 439 505 26,600 -2,580 Descending Los Angeles Center
03:13PM 33.1136 -116.5336 302° West 438 504 24,300 -1,260 Descending Los Angeles Center
03:14PM 33.1508 -116.6653 289° West 445 512 24,000 -180 Descending Los Angeles Center
03:15PM 33.1675 -116.8056 278° West 436 502 24,000 -900 Level Los Angeles Center
03:16PM 33.1842 -116.9442 278° West 428 493 22,200 -2,400 Descending Los Angeles Center
03:17PM 33.2036 -117.1069 278° West 417 480 19,100 -3,060 Descending Los Angeles Center
03:18PM 33.2183 -117.2378 278° West 393 452 15,900 -3,240 Descending Los Angeles Center
03:20PM 33.2333 -117.3833 277° West 422 486 12,100 -2,400 Descending Southern California TRACON
03:21PM 33.2500 -117.5000 280° West 315 362 10,800 -1,080 Descending Southern California TRACON
03:22PM 33.2500 -117.6000 270° West 309 356 10,000 -420 Descending Southern California TRACON
03:22PM 33.2797 -117.6633 299° West 297 342 10,000  Level Los Angeles Center
03:24PM 33.3572 -117.7372 321° Northwest 296 341 10,000 -720 Level Los Angeles Center
03:25PM 33.4167 -117.8000 319° Northwest 296 341 8,600 -1,020 Descending Southern California TRACON
03:26PM 33.4833 -117.8667 320° Northwest 279 321 8,000 -600 Descending Southern California TRACON
03:27PM 33.5500 -117.9167 328° Northwest 282 325 7,500 -540 Descending Southern California TRACON
03:28PM 33.6000 -117.9833 312° West 273 314 7,000 -300 Descending Southern California TRACON
03:29PM 33.6667 -118.0167 337° Northwest 280 322 7,000  Level Southern California TRACON
03:30PM 33.7500 -118.0500 342° North 276 318 7,000  Level Southern California TRACON
03:31PM 33.8167 -118.0667 348° North 306 352 7,000 -300 Level Southern California TRACON
03:32PM 33.9000 -118.0667 360° North 255 293 6,500 -840 Descending Southern California TRACON
03:33PM 33.9667 -118.0833 348° North 251 289 5,400 -1,260 Descending Southern California TRACON
03:34PM 33.9833 -118.1500 287° West 243 280 4,000 -1,380 Descending Southern California TRACON
03:34PM 33.9750 -118.1628 232° Southwest 245 282 3,600 -1,140 Descending Los Angeles Center
03:35PM 33.9517 -118.2300 247° West 226 260 2,500 -960 Descending Los Angeles Center
03:36PM 33.9472 -118.2917 265° West 204 235 1,600 -780 Descending Los Angeles Center
03:37PM 33.9422 -118.3361 262° West 159 183 900 -720 Descending Los Angeles Center
03:38PM 33.9392 -118.3789 265° West 141 162 200 -720 Descending Los Angeles Center
03:40PM 33.9333 -118.4000 296° West  Level FlightAware Approximate